Hamilton, MT

5:11 PM MDT on October 22, 2014 (GMT -0600)
Hamilton West Side | Change Station
CLOSE
Current Station
Personal Weather Station
Location: Hamilton, MT
Elevation: 3615 ft
Nearby Weather Stations

Elev 3615 ft 46.25 °N, 114.18 °W | Updated 1 second ago

Clear
Clear
59.4 °F
Feels Like 59.4 °F
N
3.6
Wind Variable Wind from SSW
Gusts 6.3 mph

Today
High -- | Low -- °F
--% Chance of Precip.
Yesterday
High -- | Low -- °F
Precip. -- in
8:03 AM 6:37 PM
Waning Crescent, 1% visible
Pressure 29.96 in
Visibility 10.0 miles
Clouds Mostly Cloudy 6500 ft
Dew Point 36 °F
Humidity 41%
Rainfall 0.00 in
Snow Depth 0 in , 0 in
UV 1 out of 12
Pollen 1.60 out of 12
Air Quality Not available.
Flu Activity No Activity
METAR KMSO 222253Z COR 25004KT 10SM BKN065 17/02 A2995 RMK AO2 SLP144 T01670017

More Conditions Fewer Conditions

Pressure 29.96 in
Visibility 10.0 miles
Clouds Mostly Cloudy 6500 ft
Dew Point 36 °F
Humidity 41%
Rainfall 0.00 in
Snow Depth 0 in , 0 in
UV 1 out of 12
Pollen 1.60 out of 12
Air Quality Not available.
Flu Activity No Activity
METAR KMSO 222253Z COR 25004KT 10SM BKN065 17/02 A2995 RMK AO2 SLP144 T01670017

More Conditions Fewer Conditions

10-Day Weather Forecast

Almanac

Astronomy

Oct. 22, 2014 Rise Set
Actual Time 8:03 AM MDT 6:37 PM MDT
Civil Twilight 7:32 AM MDT 7:08 PM MDT
Nautical Twilight 6:57 AM MDT 7:43 PM MDT
Astronomical Twilight 6:23 AM MDT 8:18 PM MDT
Moon 6:44 AM MDT 6:09 PM MDT
Length of Visible Light 11h 35m
Length of Day
10h 34m
Tomorrow will be 3m 5s shorter.
Waning Crescent, 1% of the Moon is Illuminated
Today
Waning Crescent
Oct 23
New
Oct 30
First Quarter
Nov 6
Full
Nov 14
Last Quarter

Today's Extremes

State Highs State Lows

Community

WunderPhotos

Upload Photos

1,764,075 photos uploaded!

WunderBlogs® & News

Nearby

Snow Depth

Station Depth Elevation
Daly Creek 0 in 5780 ft
Twelvemile Creek 0 in 5600 ft
Black Pine 2 in 7210 ft
Saddle Mountain 2 in 7900 ft
Nez Perce Camp 0 in 5650 ft

Earthquake Activity

City Distance Mag. Time & Date
No recent earthquake activity has been reported nearby.
Minimum magnitude displayed is 2.5.

Coastal Water Temperatures

Place Temperature
No Stations Reporting

Nearby Weather Stations